Aérodrome :
LOGIN :

S'inscrire | Disclaimer

   EN    FR    IT 

 










Légende :    VFR   VFR Marginal   IFR   IFR Intensif   IFR Très Intensif
Visi : 
Plafond : 
>= 8 km
>= 3000ft
5 à 8 km
1000 à 3000 ft
1500m à 5 km
500 à 1000 ft
800 à 1500m
200 à 500 ft
< 800m
< 200 ft
Symboles :   Orages  Brouillard  Fortes neiges  Fortes précipitations  Vent > 20 kt
SIGMETs :   Divers  Orages  Givrage  Turbulence  Onde Orograph.  Cendres Volcan.






- Altitude de l'aérodrome : 15 ft
- Code IATA : BHD


EGAC - George Best Belfast City

DERNIER METAR :
  • 050650Z AUTO 33010KT 300V010 9999 FEW026/// 09/04 Q0999

METARs EXPIRÉS :
  • 050620Z AUTO 31008KT 260V350 9999 NCD 09/04 Q1000
  • 050550Z AUTO 31006KT 260V360 9999 NCD 08/04 Q1000
  • 050520Z AUTO 32005KT 280V010 9999 NCD 08/04 Q1000
  • 050450Z AUTO 32010KT 9999 NCD 08/04 Q0999
  • 050420Z AUTO 33007KT 290V010 9999 NCD 08/04 Q0999

TAF TAF EGAC
Valide du 05 à 03h jusqu'au 05 à 12h UTC


050201Z 0503/0512 33004KT 9999 SCT025
BECMG 0503/0506 32014KT
TEMPO 0504/0512 7000 SHRA
PROB30
TEMPO 0510/0512 4000 +SHRA
ATIS : +44 02890 935 124



MET'MAP, la Météo Aéronautique d'un coup d'oeil ! - Copyright ORBIFLY Décembre 2007 - Disclaimer

ORBIFLY MET'MAP TEAM :

Programmation & Développement : Alexandra Zaïnal
Sur une idée originale de : Baudouin d'Aumeries
Assistance à la programmation : Marc-Olivier Méhu
Soutien technique & logistique : Manuel Goepfert

Contact : metmap@orbifly.com




SOURCES & CREDITS :

   NOAA